Time;durP1;ratioP1;P1;durP2;ratioP2;P2;SDS_P1;SDS_P2;PMS_P1;PMS_P2;Temp;Humidity;BMP_temperature;BMP_pressure;BME280_temperature;BME280_humidity;BME280_pressure;Samples;Min_cycle;Max_cycle;Signal;HPM_P1;HPM_P2
2022/05/07 00:00:24;;;;;;;9.48;5.72;;;;;;;-149.78;100.00;50205.47;4736112;30;20041;-72
2022/05/07 00:02:50;;;;;;;10.02;6.05;;;;;;;-149.78;100.00;50244.59;4720682;30;20037;-72
2022/05/07 00:05:16;;;;;;;9.75;5.80;;;;;;;-149.78;100.00;50225.03;4736055;30;20418;-71
2022/05/07 00:07:42;;;;;;;10.07;5.60;;;;;;;-149.78;100.00;50240.66;4735137;30;20124;-71
2022/05/07 00:10:08;;;;;;;8.95;5.68;;;;;;;-149.78;100.00;50209.38;4735946;30;20052;-72
2022/05/07 00:12:35;;;;;;;9.35;5.57;;;;;;;-149.78;100.00;50199.59;4735733;30;20051;-72
2022/05/07 00:15:01;;;;;;;7.78;5.50;;;;;;;-149.78;100.00;50230.88;4735820;30;20127;-72
2022/05/07 00:20:10;;;;;;;9.88;5.50;;;;;;;-149.78;100.00;50185.91;4735690;30;20046;-71
2022/05/07 00:22:37;;;;;;;7.95;4.85;;;;;;;-149.78;100.00;50221.13;4735873;30;20040;-72
2022/05/07 00:25:04;;;;;;;6.72;4.63;;;;;;;-149.78;100.00;50232.84;4735699;30;20068;-72
2022/05/07 00:27:29;;;;;;;6.45;4.20;;;;;;;-149.78;100.00;50209.38;4735816;30;20083;-72
2022/05/07 00:29:55;;;;;;;7.13;4.05;;;;;;;-149.78;100.00;50209.38;4735636;30;20063;-72
2022/05/07 00:32:20;;;;;;;5.22;3.75;;;;;;;-149.78;100.00;50248.50;4735700;30;20498;-71
2022/05/07 00:34:46;;;;;;;7.07;3.75;;;;;;;-149.78;100.00;50205.47;4735559;30;20041;-71
2022/05/07 00:37:12;;;;;;;6.13;3.83;;;;;;;-149.78;100.00;50213.28;4719886;30;20052;-72
2022/05/07 00:39:37;;;;;;;4.78;3.30;;;;;;;-149.78;100.00;50248.50;4735710;30;20052;-72
2022/05/07 00:42:05;;;;;;;6.88;3.55;;;;;;;-149.78;100.00;50228.94;4735482;30;20097;-72
2022/05/07 00:44:32;;;;;;;8.65;3.65;;;;;;;-149.78;100.00;50201.56;4735508;30;20045;-71
2022/05/07 00:47:18;;;;;;;7.57;3.50;;;;;;;-149.78;100.00;50244.59;4735295;30;20131;-72
2022/05/07 00:49:47;;;;;;;6.88;3.50;;;;;;;-149.78;100.00;50248.50;4719810;30;20056;-71
2022/05/07 00:52:18;;;;;;;6.05;3.20;;;;;;;-149.78;100.00;50256.31;4719703;30;20041;-71
2022/05/07 00:54:46;;;;;;;6.43;3.42;;;;;;;-149.78;100.00;50236.75;4734405;30;20418;-72
2022/05/07 00:57:16;;;;;;;8.27;3.38;;;;;;;-149.78;100.00;50238.72;4735192;30;20051;-71
2022/05/07 00:59:42;;;;;;;4.78;3.30;;;;;;;-149.78;100.00;50240.66;4735291;30;20044;-72
2022/05/07 01:02:07;;;;;;;5.65;3.05;;;;;;;-149.78;100.00;50246.53;4723020;30;20067;-71
2022/05/07 01:04:33;;;;;;;6.07;3.38;;;;;;;-149.78;100.00;50279.78;4734890;30;20485;-72
2022/05/07 01:07:02;;;;;;;5.53;2.88;;;;;;;-149.78;100.00;50248.50;4719247;30;20094;-72
2022/05/07 01:09:28;;;;;;;6.18;3.08;;;;;;;-149.78;100.00;50299.34;4734946;30;20128;-72
2022/05/07 01:11:55;;;;;;;9.23;2.88;;;;;;;-149.78;100.00;50279.78;4704813;30;20500;-72
2022/05/07 01:14:20;;;;;;;9.50;3.53;;;;;;;-149.78;100.00;50236.75;4734961;30;20566;-72
2022/05/07 01:16:46;;;;;;;8.25;2.85;;;;;;;-149.78;100.00;50279.78;4719320;30;20074;-72
2022/05/07 01:19:11;;;;;;;7.97;3.15;;;;;;;-149.78;100.00;50260.22;4733076;30;20072;-72
2022/05/07 01:21:37;;;;;;;5.28;2.85;;;;;;;-149.78;100.00;50281.75;4717536;30;20131;-72
2022/05/07 01:24:04;;;;;;;4.28;2.60;;;;;;;-149.78;100.00;50275.88;4717275;30;20133;-72
2022/05/07 01:26:30;;;;;;;6.32;3.47;;;;;;;-149.78;100.00;50244.59;4717464;30;20505;-72
2022/05/07 01:29:00;;;;;;;7.57;3.42;;;;;;;-149.78;100.00;50248.50;4717254;30;20049;-71
2022/05/07 01:31:29;;;;;;;8.07;2.95;;;;;;;-149.78;100.00;50268.03;4717326;30;20094;-72
2022/05/07 01:33:55;;;;;;;4.45;2.88;;;;;;;-149.78;100.00;50281.75;4701454;30;20127;-71
2022/05/07 01:36:21;;;;;;;8.80;2.83;;;;;;;-149.78;100.00;50244.59;4727123;30;20114;-71
2022/05/07 01:38:48;;;;;;;8.43;2.75;;;;;;;-149.78;100.00;50232.84;4734640;30;20053;-72
2022/05/07 01:41:14;;;;;;;4.55;3.00;;;;;;;-149.78;100.00;50266.09;4718984;30;20051;-72
2022/05/07 01:43:40;;;;;;;4.68;2.42;;;;;;;-149.78;100.00;50289.56;4734449;30;20068;-72
2022/05/07 01:48:09;;;;;;;5.13;2.85;;;;;;;-149.78;100.00;50311.06;4732459;30;20126;-72
2022/05/07 01:48:54;;;;;;;9.93;3.08;;;;;;;-149.78;100.00;50299.34;4734372;30;20049;-72
2022/05/07 01:51:19;;;;;;;7.95;3.10;;;;;;;-149.78;100.00;50295.44;4734406;30;20493;-72
2022/05/07 01:53:45;;;;;;;7.72;3.00;;;;;;;-149.78;100.00;50271.97;4733223;30;20509;-72
2022/05/07 01:56:10;;;;;;;9.70;3.08;;;;;;;-149.78;100.00;50283.69;4734261;30;20135;-72
2022/05/07 01:58:36;;;;;;;8.07;2.97;;;;;;;-149.78;100.00;50266.09;4734381;30;20052;-72
2022/05/07 02:01:02;;;;;;;5.65;3.08;;;;;;;-149.78;100.00;50303.25;4718475;30;20048;-72
2022/05/07 02:03:28;;;;;;;6.47;3.10;;;;;;;-149.78;100.00;50252.41;4734275;30;20486;-71
2022/05/07 02:05:53;;;;;;;12.70;3.20;;;;;;;-149.78;100.00;50279.78;4703950;30;20048;-72
2022/05/07 02:08:19;;;;;;;6.90;3.50;;;;;;;-149.78;100.00;50283.69;4718059;30;20070;-72
2022/05/07 02:10:45;;;;;;;8.27;3.30;;;;;;;-149.78;100.00;50287.59;4734151;30;20068;-72
2022/05/07 02:13:10;;;;;;;5.55;2.67;;;;;;;-149.78;100.00;50275.88;4734150;30;20331;-72
2022/05/07 02:15:36;;;;;;;9.63;3.05;;;;;;;-149.78;100.00;50291.50;4733472;30;20561;-72
2022/05/07 02:18:02;;;;;;;14.48;3.20;;;;;;;-149.78;100.00;50228.94;4716301;30;20049;-72
2022/05/07 02:20:28;;;;;;;7.97;3.17;;;;;;;-149.78;100.00;50264.13;4716415;30;20049;-72
2022/05/07 02:22:58;;;;;;;6.18;3.00;;;;;;;-149.78;100.00;50299.34;4700705;30;20110;-72
2022/05/07 02:25:24;;;;;;;6.10;3.05;;;;;;;-149.78;100.00;50293.47;4716437;30;20036;-72
2022/05/07 02:27:50;;;;;;;7.20;3.22;;;;;;;-149.78;100.00;50252.41;4686654;30;20052;-72
2022/05/07 02:30:19;;;;;;;5.82;3.00;;;;;;;-149.78;100.00;50311.06;4716206;30;20064;-72
2022/05/07 02:32:48;;;;;;;5.85;2.83;;;;;;;-149.78;100.00;50295.44;4700976;30;20380;-71
2022/05/07 02:35:14;;;;;;;11.60;4.00;;;;;;;-149.78;100.00;50322.81;4700610;30;20564;-72
2022/05/07 02:37:40;;;;;;;7.47;2.80;;;;;;;-149.78;100.00;50338.44;4716918;30;20091;-72
2022/05/07 02:40:06;;;;;;;7.25;3.42;;;;;;;-149.78;100.00;50285.66;4727780;30;20045;-72
2022/05/07 02:42:36;;;;;;;5.72;2.80;;;;;;;-149.78;100.00;50287.59;4717667;30;20053;-71
2022/05/07 02:45:06;;;;;;;6.13;3.80;;;;;;;-149.78;100.00;50324.75;4718604;30;20041;-72
2022/05/07 02:47:34;;;;;;;7.85;3.00;;;;;;;-149.78;100.00;50328.69;4733813;30;20077;-72
2022/05/07 02:50:01;;;;;;;8.80;3.25;;;;;;;-149.78;100.00;50297.38;4732750;30;20401;-72
2022/05/07 02:52:26;;;;;;;11.23;2.95;;;;;;;-149.78;100.00;50311.06;4718237;30;20443;-72
2022/05/07 02:54:52;;;;;;;9.02;3.25;;;;;;;-149.78;100.00;50285.66;4733709;30;20049;-72
2022/05/07 02:57:17;;;;;;;6.68;2.90;;;;;;;-149.78;100.00;50291.50;4735964;30;20132;-72
2022/05/07 02:59:43;;;;;;;7.88;3.17;;;;;;;-149.78;100.00;50275.88;4737262;30;20045;-72
2022/05/07 03:02:10;;;;;;;6.38;2.90;;;;;;;-149.78;100.00;50283.69;4731586;30;20041;-72
2022/05/07 03:04:36;;;;;;;6.07;3.17;;;;;;;-149.78;100.00;50311.06;4703737;30;20041;-72
2022/05/07 03:07:01;;;;;;;8.45;3.30;;;;;;;-149.78;100.00;50299.34;4719624;30;20048;-72
2022/05/07 03:09:27;;;;;;;11.40;3.53;;;;;;;-149.78;100.00;50299.34;4722314;30;20036;-72
2022/05/07 03:11:52;;;;;;;10.30;3.17;;;;;;;-149.78;100.00;50295.44;4736959;30;20513;-72
2022/05/07 03:14:21;;;;;;;10.52;3.97;;;;;;;-149.78;100.00;50346.28;4719340;30;20056;-72
2022/05/07 03:16:48;;;;;;;9.73;3.30;;;;;;;-149.78;100.00;50297.38;4726650;30;20049;-72
2022/05/07 03:19:14;;;;;;;7.90;3.20;;;;;;;-149.78;100.00;50307.16;4734376;30;20501;-72
2022/05/07 03:21:40;;;;;;;6.25;2.80;;;;;;;-149.78;100.00;50311.06;4736801;30;20045;-72
2022/05/07 03:24:06;;;;;;;10.13;3.17;;;;;;;-149.78;100.00;50318.91;4736621;30;20040;-72
2022/05/07 03:26:31;;;;;;;7.18;2.97;;;;;;;-149.78;100.00;50361.91;4736875;30;20043;-72
2022/05/07 03:28:57;;;;;;;8.70;3.08;;;;;;;-149.78;100.00;50314.97;4721155;30;20509;-72
2022/05/07 03:31:23;;;;;;;16.48;3.58;;;;;;;-149.78;100.00;50314.97;4736698;30;20044;-72
2022/05/07 03:33:48;;;;;;;7.53;3.03;;;;;;;-149.78;100.00;50334.53;4705983;30;20066;-72
2022/05/07 03:36:19;;;;;;;9.20;3.50;;;;;;;-149.78;100.00;50311.06;4736197;30;20049;-72
2022/05/07 03:38:45;;;;;;;11.60;3.55;;;;;;;-149.78;100.00;50330.63;4736619;30;20051;-72
2022/05/07 03:41:11;;;;;;;6.00;3.08;;;;;;;-149.78;100.00;50330.63;4706473;30;20044;-72
2022/05/07 03:43:37;;;;;;;6.32;2.70;;;;;;;-149.78;100.00;50354.09;4735429;30;20410;-73
2022/05/07 03:46:08;;;;;;;7.95;3.22;;;;;;;-149.78;100.00;50305.22;4736416;30;20040;-73
2022/05/07 03:48:34;;;;;;;7.57;3.05;;;;;;;-149.78;100.00;50322.81;4736436;30;20044;-72
2022/05/07 03:51:00;;;;;;;9.00;3.20;;;;;;;-149.78;100.00;50301.28;4736411;30;20449;-73
2022/05/07 03:53:32;;;;;;;9.60;2.75;;;;;;;-149.78;100.00;50289.56;4736565;30;20040;-72
2022/05/07 03:55:58;;;;;;;9.60;3.25;;;;;;;-149.78;100.00;50334.53;4736574;30;20060;-72
2022/05/07 03:58:26;;;;;;;6.57;2.95;;;;;;;-149.78;100.00;50334.53;4736445;30;20179;-72
2022/05/07 04:00:54;;;;;;;12.27;3.05;;;;;;;-149.78;100.00;50299.34;4736274;30;20047;-72
2022/05/07 04:03:20;;;;;;;8.98;3.08;;;;;;;-149.78;100.00;50301.28;4735075;30;20049;-72
2022/05/07 04:05:46;;;;;;;6.55;2.70;;;;;;;-149.78;100.00;50322.81;4736338;30;20123;-72
2022/05/07 04:08:12;;;;;;;11.10;3.42;;;;;;;-149.78;100.00;50318.91;4735354;30;20041;-72
2022/05/07 04:10:39;;;;;;;10.80;3.10;;;;;;;-149.78;100.00;50338.44;4734944;30;20067;-72
2022/05/07 04:13:06;;;;;;;8.20;3.08;;;;;;;-149.78;100.00;50332.59;4735933;30;20512;-72
2022/05/07 04:15:32;;;;;;;7.13;2.90;;;;;;;-149.78;100.00;50297.38;4726046;30;20045;-72
2022/05/07 04:17:58;;;;;;;7.00;2.92;;;;;;;-149.78;100.00;50303.25;4718243;30;20053;-72
2022/05/07 04:20:24;;;;;;;8.20;2.90;;;;;;;-149.78;100.00;50348.22;4718400;30;20045;-72
2022/05/07 04:22:50;;;;;;;7.75;3.13;;;;;;;-149.78;100.00;50346.28;4718409;30;20037;-72
2022/05/07 04:25:16;;;;;;;6.15;2.90;;;;;;;-149.78;100.00;50346.28;4732506;30;20055;-72
2022/05/07 04:27:41;;;;;;;6.20;2.65;;;;;;;-149.78;100.00;50311.06;4735900;30;20040;-72
2022/05/07 04:30:07;;;;;;;6.40;3.00;;;;;;;-149.78;100.00;50344.31;4691421;30;20064;-72
2022/05/07 04:32:33;;;;;;;9.50;2.97;;;;;;;-149.78;100.00;50307.16;4720157;30;20037;-72
2022/05/07 04:34:59;;;;;;;5.72;2.65;;;;;;;-149.78;100.00;50322.81;4734628;30;20051;-73
2022/05/07 04:37:25;;;;;;;6.50;2.72;;;;;;;-149.78;100.00;50330.63;4720088;30;20047;-72
2022/05/07 04:39:51;;;;;;;4.90;2.38;;;;;;;-149.78;100.00;50350.19;4735715;30;20051;-72
2022/05/07 04:42:17;;;;;;;7.57;2.53;;;;;;;-149.78;100.00;50330.63;4734446;30;20468;-73
2022/05/07 04:44:43;;;;;;;5.60;2.20;;;;;;;-149.78;100.00;50322.81;4735385;30;20490;-73
2022/05/07 04:47:09;;;;;;;4.15;2.30;;;;;;;-149.78;100.00;50328.69;4735383;30;20048;-72
2022/05/07 04:49:36;;;;;;;4.88;2.33;;;;;;;-149.78;100.00;50338.44;4735361;30;20068;-72
2022/05/07 04:52:05;;;;;;;7.03;2.50;;;;;;;-149.78;100.00;50311.06;4735405;30;20041;-72
2022/05/07 04:54:32;;;;;;;3.58;2.53;;;;;;;-149.78;100.00;50307.16;4702359;30;20044;-72
2022/05/07 04:56:58;;;;;;;7.03;2.70;;;;;;;-149.78;100.00;50338.44;4717713;30;20214;-72
2022/05/07 04:59:24;;;;;;;7.15;2.65;;;;;;;-149.78;100.00;50334.53;4717934;30;20149;-72
2022/05/07 05:01:50;;;;;;;4.03;2.40;;;;;;;-149.78;100.00;50365.84;4717779;30;20106;-72
2022/05/07 05:04:16;;;;;;;3.72;2.25;;;;;;;-149.78;100.00;50311.06;4702183;30;20052;-72
2022/05/07 05:06:42;;;;;;;6.63;2.53;;;;;;;-149.78;100.00;50369.75;4702354;30;20041;-72
2022/05/07 05:09:08;;;;;;;5.60;2.50;;;;;;;-149.78;100.00;50264.13;4717588;30;20523;-72
2022/05/07 05:11:35;;;;;;;4.88;2.15;;;;;;;-149.78;100.00;50387.34;4702192;30;20258;-72
2022/05/07 05:14:01;;;;;;;5.28;2.45;;;;;;;-149.78;100.00;50311.06;4702148;30;20033;-72
2022/05/07 05:16:27;;;;;;;7.28;2.50;;;;;;;-149.78;100.00;50311.06;4717338;30;20071;-72
2022/05/07 05:18:53;;;;;;;3.45;2.15;;;;;;;-149.78;100.00;50369.75;4717218;30;20095;-72
2022/05/07 05:21:19;;;;;;;5.05;2.40;;;;;;;-149.78;100.00;50326.72;4700553;30;20072;-72
2022/05/07 05:23:48;;;;;;;4.03;2.40;;;;;;;-149.78;100.00;50334.53;4689098;30;20072;-72
2022/05/07 05:26:13;;;;;;;4.85;2.47;;;;;;;-149.78;100.00;50332.59;4718804;30;20037;-72
2022/05/07 05:28:40;;;;;;;5.38;2.30;;;;;;;-149.78;100.00;50307.16;4703925;30;20040;-72
2022/05/07 05:31:06;;;;;;;6.28;2.13;;;;;;;-149.78;100.00;50332.59;4704318;30;20079;-73
2022/05/07 05:33:32;;;;;;;5.50;2.15;;;;;;;-149.78;100.00;50295.44;4716112;30;20045;-72
2022/05/07 05:35:58;;;;;;;7.05;2.53;;;;;;;-149.78;100.00;50307.16;4717223;30;20033;-72
2022/05/07 05:38:24;;;;;;;5.10;2.35;;;;;;;-149.78;100.00;50334.53;4717268;30;20045;-73
2022/05/07 05:40:56;;;;;;;4.93;2.22;;;;;;;-149.78;100.00;50328.69;5089510;27;21054;-71
2022/05/07 05:43:23;;;;;;;5.00;2.28;;;;;;;-149.78;100.00;50299.34;5089571;28;20040;-71
2022/05/07 05:45:49;;;;;;;6.90;2.47;;;;;;;-149.78;100.00;50322.81;5122487;27;20113;-72
2022/05/07 05:48:15;;;;;;;6.13;2.72;;;;;;;-149.78;100.00;50385.38;5054710;28;20032;-71
2022/05/07 05:50:41;;;;;;;7.70;2.55;;;;;;;-149.78;100.00;50326.72;5088235;28;20137;-70
2022/05/07 05:53:07;;;;;;;6.45;3.33;;;;;;;-149.78;100.00;50314.97;5079762;28;20032;-73
2022/05/07 05:55:33;;;;;;;6.95;2.58;;;;;;;-149.78;100.00;50313.03;5111770;28;20028;-73
2022/05/07 05:57:59;;;;;;;3.75;2.22;;;;;;;-149.78;100.00;50307.16;5087518;28;20038;-73
2022/05/07 06:00:25;;;;;;;7.38;2.67;;;;;;;-149.78;100.00;50322.81;5068230;28;20379;-73
2022/05/07 06:02:51;;;;;;;5.93;2.92;;;;;;;-149.78;100.00;50314.97;5078072;28;20131;-71
2022/05/07 06:05:17;;;;;;;7.38;2.50;;;;;;;-149.78;100.00;50307.16;5108945;28;20117;-71
2022/05/07 06:07:43;;;;;;;8.02;2.50;;;;;;;-149.78;100.00;50268.03;5076375;28;20426;-74
2022/05/07 06:10:09;;;;;;;6.20;2.55;;;;;;;-149.78;100.00;50314.97;5074983;28;20052;-71
2022/05/07 06:12:35;;;;;;;5.60;2.60;;;;;;;-149.78;100.00;50287.59;5079782;28;20494;-71
2022/05/07 06:15:01;;;;;;;8.02;2.10;;;;;;;-149.78;100.00;50332.59;5076330;28;20036;-71
2022/05/07 06:17:28;;;;;;;9.35;2.30;;;;;;;-149.78;100.00;50285.66;5071769;28;20052;-71
2022/05/07 06:19:53;;;;;;;8.20;2.60;;;;;;;-149.78;100.00;50295.44;5069248;28;20121;-71
2022/05/07 06:22:19;;;;;;;7.45;2.45;;;;;;;-149.78;100.00;50268.03;5073696;28;20488;-72
2022/05/07 06:27:31;;;;;;;3.35;1.95;;;;;;;-149.78;100.00;50256.31;5073278;28;20060;-71
2022/05/07 06:30:01;;;;;;;4.07;2.00;;;;;;;-149.78;100.00;50244.59;5075478;28;20032;-72
2022/05/07 06:32:34;;;;;;;4.53;1.90;;;;;;;-149.78;100.00;50287.59;5073903;28;20119;-72
2022/05/07 06:35:05;;;;;;;5.10;1.88;;;;;;;-149.78;100.00;50242.63;5082040;28;20036;-72
2022/05/07 06:37:31;;;;;;;3.95;1.75;;;;;;;-149.78;100.00;50256.31;5070249;28;20033;-71
2022/05/07 06:39:58;;;;;;;5.18;1.95;;;;;;;-149.78;100.00;50213.28;5075170;28;20036;-72
2022/05/07 06:42:24;;;;;;;3.95;1.70;;;;;;;-149.78;100.00;50213.28;5070228;28;20507;-72
2022/05/07 06:44:50;;;;;;;3.65;1.80;;;;;;;-149.78;100.00;50185.91;5075052;28;20028;-72
2022/05/07 06:47:16;;;;;;;2.92;1.70;;;;;;;-149.78;100.00;50148.75;5075435;28;20025;-72
2022/05/07 06:49:43;;;;;;;7.97;1.88;;;;;;;-149.78;100.00;50142.88;5080083;28;20040;-72
2022/05/07 06:52:10;;;;;;;5.35;1.80;;;;;;;-149.78;100.00;50127.25;5054345;28;20056;-72
2022/05/07 06:54:35;;;;;;;3.78;1.73;;;;;;;-149.78;100.00;50115.50;5059327;28;20033;-72
2022/05/07 06:57:03;;;;;;;6.80;1.92;;;;;;;-149.78;100.00;50125.28;5053967;28;20064;-71
2022/05/07 06:59:32;;;;;;;3.35;1.50;;;;;;;-149.78;100.00;50119.41;5066874;28;20535;-72
2022/05/07 07:01:58;;;;;;;2.92;1.90;;;;;;;-149.78;100.00;50060.75;5061786;28;20044;-70
2022/05/07 07:04:25;;;;;;;5.38;2.40;;;;;;;-149.78;100.00;50138.97;5058482;28;20029;-70
2022/05/07 07:06:51;;;;;;;5.35;1.80;;;;;;;-149.78;100.00;50117.47;5054910;28;20377;-71
2022/05/07 07:09:17;;;;;;;4.60;1.65;;;;;;;-149.78;100.00;50076.41;5064248;28;20120;-70
2022/05/07 07:11:44;;;;;;;5.47;1.70;;;;;;;-149.78;100.00;50049.03;5061868;28;20536;-70
2022/05/07 07:14:10;;;;;;;3.65;1.63;;;;;;;-149.78;100.00;50039.25;5057756;28;20483;-71
2022/05/07 07:16:36;;;;;;;3.25;1.98;;;;;;;-149.78;100.00;50037.28;5047468;28;20388;-70
2022/05/07 07:19:02;;;;;;;3.92;2.08;;;;;;;-149.78;100.00;50027.50;5059166;28;20032;-70
2022/05/07 07:21:28;;;;;;;5.53;1.80;;;;;;;-149.78;100.00;49986.44;5059122;28;20075;-71
2022/05/07 07:23:54;;;;;;;2.67;1.60;;;;;;;-149.78;100.00;49978.63;5055314;28;20021;-71
2022/05/07 07:26:19;;;;;;;5.75;1.67;;;;;;;-149.78;92.44;49984.50;5060170;28;20032;-71
2022/05/07 07:28:46;;;;;;;3.17;1.48;;;;;;;-149.78;81.02;50006.00;5056321;28;20025;-70
2022/05/07 07:31:11;;;;;;;2.67;1.67;;;;;;;-149.78;69.10;49962.97;5063616;28;20025;-70
2022/05/07 07:33:38;;;;;;;6.00;2.47;;;;;;;-149.78;67.79;49955.16;5064745;28;20377;-72
2022/05/07 07:36:09;;;;;;;4.63;2.10;;;;;;;-149.78;61.34;49919.94;5064445;28;20111;-71
2022/05/07 07:38:35;;;;;;;3.53;1.65;;;;;;;-149.78;59.35;49945.38;5065327;28;20041;-70
2022/05/07 07:41:02;;;;;;;4.32;1.70;;;;;;;-149.78;56.45;49908.22;5063444;28;20036;-71
2022/05/07 07:43:29;;;;;;;4.15;2.05;;;;;;;-149.78;54.99;49945.38;5064963;28;20029;-72
2022/05/07 07:48:39;;;;;;;3.05;1.75;;;;;;;-149.78;53.34;49912.13;5063379;28;20487;-72
2022/05/07 07:51:06;;;;;;;4.15;2.00;;;;;;;-149.78;53.77;49947.34;5057762;28;20029;-72
2022/05/07 07:53:32;;;;;;;5.15;2.10;;;;;;;-149.78;49.15;49923.88;5060745;28;20114;-72
2022/05/07 07:55:58;;;;;;;4.05;1.65;;;;;;;-149.78;49.05;49931.69;5057428;28;20395;-72
2022/05/07 07:58:24;;;;;;;5.43;1.88;;;;;;;-149.78;50.99;49880.84;5064897;28;20107;-72
2022/05/07 08:00:50;;;;;;;5.38;1.98;;;;;;;-149.78;50.90;49914.09;5066322;28;20027;-72
2022/05/07 08:03:18;;;;;;;5.78;2.47;;;;;;;-149.78;48.60;49890.63;5059176;28;20154;-72
2022/05/07 08:05:46;;;;;;;3.55;1.85;;;;;;;-149.78;48.90;49935.59;5060148;28;20032;-72
2022/05/07 08:13:43;;;;;;;4.10;1.88;;;;;;;-149.78;50.75;49892.56;5060060;28;20040;-72
2022/05/07 08:16:09;;;;;;;6.40;2.20;;;;;;;-149.78;47.58;49873.03;5060565;28;20533;-72
2022/05/07 08:18:36;;;;;;;4.35;2.33;;;;;;;-149.78;50.45;49937.56;5056740;28;20069;-72
2022/05/07 08:21:02;;;;;;;5.63;2.40;;;;;;;-149.78;50.79;49947.34;5059473;28;20055;-72
2022/05/07 08:23:28;;;;;;;2.67;1.73;;;;;;;-149.78;50.70;49935.59;5062176;28;20028;-72
2022/05/07 08:25:54;;;;;;;5.80;2.05;;;;;;;-149.78;49.04;49931.69;5058574;28;20552;-73
2022/05/07 08:28:21;;;;;;;6.18;2.30;;;;;;;-149.78;49.18;49939.50;5062203;28;20028;-72
2022/05/07 08:30:49;;;;;;;6.57;1.92;;;;;;;-149.78;47.96;49912.13;5065457;28;20067;-72
2022/05/07 08:33:17;;;;;;;2.63;1.70;;;;;;;-149.78;49.12;49910.19;5055354;28;20057;-73
2022/05/07 08:35:43;;;;;;;3.55;2.35;;;;;;;-149.78;47.83;49904.31;5056593;28;20031;-72
2022/05/07 08:38:09;;;;;;;4.45;2.75;;;;;;;-149.78;46.39;49931.69;5041190;28;20032;-72
2022/05/07 08:40:35;;;;;;;3.65;2.33;;;;;;;-149.78;49.63;49939.50;5054544;28;20037;-72
2022/05/07 08:43:03;;;;;;;6.05;2.10;;;;;;;-149.78;49.84;49951.25;5049272;28;20450;-72
2022/05/07 08:45:29;;;;;;;4.55;2.30;;;;;;;-149.78;48.17;49898.44;5059424;28;20035;-71
2022/05/07 08:47:54;;;;;;;6.07;2.40;;;;;;;-149.78;47.20;49912.13;5052579;28;20396;-73
2022/05/07 08:50:21;;;;;;;6.90;2.60;;;;;;;-149.78;46.06;49923.88;5052409;28;20438;-73
2022/05/07 08:52:47;;;;;;;4.20;2.22;;;;;;;-149.78;46.42;49908.22;5072289;28;20033;-72
2022/05/07 08:55:17;;;;;;;5.28;3.17;;;;;;;-149.78;46.52;49900.41;5069706;28;20035;-73
2022/05/07 08:57:45;;;;;;;4.35;2.58;;;;;;;-149.78;45.96;49921.91;5050790;28;20423;-72
2022/05/07 09:00:13;;;;;;;4.10;2.28;;;;;;;-149.78;47.58;49900.41;5052210;28;20036;-71
2022/05/07 09:02:41;;;;;;;3.85;2.17;;;;;;;-149.78;48.20;49900.41;5052334;28;20036;-71
2022/05/07 09:05:11;;;;;;;4.53;2.67;;;;;;;-149.78;45.07;49874.97;5051925;28;20111;-70
2022/05/07 09:07:39;;;;;;;6.50;2.20;;;;;;;-149.78;47.15;49873.03;5035022;28;20044;-71
2022/05/07 09:10:14;;;;;;;6.07;2.75;;;;;;;-149.78;48.03;49939.50;5052115;28;20029;-71
2022/05/07 09:12:40;;;;;;;8.60;3.35;;;;;;;-149.78;49.28;49923.88;5037558;28;20059;-71
2022/05/07 09:15:08;;;;;;;7.05;3.10;;;;;;;-149.78;47.00;49908.22;5061526;28;20518;-70
2022/05/07 09:17:35;;;;;;;5.60;2.83;;;;;;;-149.78;47.33;49914.09;5070594;28;20033;-70
2022/05/07 09:20:12;;;;;;;7.82;3.53;;;;;;;-149.78;50.67;49955.16;5050510;28;20048;-70
2022/05/07 09:22:56;;;;;;;3.95;3.10;;;;;;;-149.78;52.26;49945.38;5054789;28;20059;-72
2022/05/07 09:25:26;;;;;;;5.15;3.25;;;;;;;-149.78;53.17;49959.06;5061233;28;20376;-74
2022/05/07 09:27:55;;;;;;;6.07;3.25;;;;;;;-149.78;51.75;49947.34;5052964;28;20058;-73
2022/05/07 09:30:28;;;;;;;6.82;3.38;;;;;;;-149.78;51.78;49951.25;5056489;28;20028;-71
2022/05/07 09:32:55;;;;;;;7.38;3.13;;;;;;;-149.78;50.64;49949.28;5058768;28;20480;-72
2022/05/07 09:35:47;;;;;;;6.07;3.70;;;;;;;-149.78;52.32;49990.34;5061511;28;20032;-73
2022/05/07 09:38:15;;;;;;;7.78;3.38;;;;;;;-149.78;54.75;49966.88;5056925;28;20060;-72
2022/05/07 09:40:42;;;;;;;10.15;3.85;;;;;;;-149.78;50.34;49964.94;5051750;28;20047;-73
2022/05/07 09:43:10;;;;;;;8.50;3.58;;;;;;;-149.78;54.17;49964.94;5054179;28;20035;-72
2022/05/07 09:45:37;;;;;;;6.10;3.13;;;;;;;-149.78;51.21;49966.88;5053287;28;20117;-72
2022/05/07 09:48:06;;;;;;;9.95;3.30;;;;;;;-149.78;57.64;49988.41;5052722;28;20511;-72
2022/05/07 09:58:41;;;;;;;8.13;3.40;;;;;;;-149.78;58.71;50039.25;5059728;28;20048;-70
2022/05/07 10:01:25;;;;;;;7.88;4.47;;;;;;;-149.78;57.08;50013.81;5058653;28;20514;-72
2022/05/07 10:04:12;;;;;;;8.13;4.30;;;;;;;-149.78;59.62;50045.09;5059536;28;20032;-72
2022/05/07 10:06:49;;;;;;;9.60;4.43;;;;;;;-149.78;59.24;50004.03;5054381;28;20033;-72
2022/05/07 10:09:27;;;;;;;7.18;3.78;;;;;;;-149.78;60.97;50021.63;5050094;28;20032;-72
2022/05/07 10:11:56;;;;;;;9.00;3.42;;;;;;;-149.78;62.81;50041.19;5045317;28;20041;-72
2022/05/07 10:14:26;;;;;;;5.10;3.47;;;;;;;-149.78;69.06;50076.41;5070334;28;20086;-71
2022/05/07 10:17:05;;;;;;;7.38;3.72;;;;;;;-149.78;76.37;50111.59;5067354;28;20046;-72
2022/05/07 10:19:51;;;;;;;7.47;4.18;;;;;;;-149.78;82.32;50131.16;5050653;28;20041;-71
2022/05/07 10:22:23;;;;;;;8.18;3.75;;;;;;;-149.78;76.51;50080.31;5032623;28;20051;-72
2022/05/07 10:25:09;;;;;;;;;;;;;;;-149.78;78.50;50064.66;5062995;28;20044;-72
2022/05/07 10:27:43;;;;;;;11.18;4.18;;;;;;;-149.78;77.17;50092.03;5073302;28;19943;-72
2022/05/07 10:30:09;;;;;;;9.77;4.47;;;;;;;-149.78;77.25;50135.06;5074849;28;20387;-72
2022/05/07 10:33:01;;;;;;;7.47;3.67;;;;;;;-149.78;77.95;50064.66;5074599;28;20044;-71
2022/05/07 10:35:53;;;;;;;16.00;5.82;;;;;;;-149.78;77.50;50099.88;5073559;28;20028;-72
2022/05/07 10:38:33;;;;;;;8.63;3.95;;;;;;;-149.78;78.51;50099.88;5074482;28;20032;-71
2022/05/07 10:41:05;;;;;;;11.38;4.80;;;;;;;-149.78;79.23;50107.69;5073318;28;20029;-72
2022/05/07 10:43:36;;;;;;;12.73;3.92;;;;;;;-149.78;81.42;50105.72;5073426;28;20032;-71
2022/05/07 10:46:11;;;;;;;7.03;4.13;;;;;;;-149.78;81.59;50115.50;5073132;28;20040;-72
2022/05/07 10:48:47;;;;;;;10.75;4.72;;;;;;;-149.78;81.17;50123.34;5074499;28;20062;-71
2022/05/07 10:51:17;;;;;;;11.07;4.38;;;;;;;-149.78;87.82;50107.69;5073252;28;20710;-72
2022/05/07 10:53:43;;;;;;;7.28;4.13;;;;;;;-149.78;80.97;50103.78;5073555;28;20078;-71
2022/05/07 10:56:19;;;;;;;12.10;4.18;;;;;;;-149.78;84.00;50119.41;5056618;28;20055;-72
2022/05/07 10:58:50;;;;;;;6.47;3.88;;;;;;;-149.78;88.05;50150.72;5073270;28;20066;-71
2022/05/07 11:01:17;;;;;;;11.07;4.80;;;;;;;-149.78;90.62;50131.16;5074577;28;20060;-71
2022/05/07 11:03:43;;;;;;;9.23;4.22;;;;;;;-149.78;89.57;50127.25;5074250;28;20035;-71
2022/05/07 11:06:09;;;;;;;9.02;4.20;;;;;;;-149.78;82.24;50092.03;5074153;28;20119;-71
2022/05/07 11:08:46;;;;;;;11.77;5.10;;;;;;;-149.78;85.67;50115.50;5072640;28;20035;-71
2022/05/07 11:11:11;;;;;;;8.32;4.97;;;;;;;-149.78;85.61;50115.50;5072644;28;20399;-71
2022/05/07 11:13:49;;;;;;;12.95;4.40;;;;;;;-149.78;83.51;50107.69;5072883;28;20033;-72
2022/05/07 11:16:16;;;;;;;13.85;4.40;;;;;;;-149.78;82.70;50146.81;5073937;28;20039;-71
2022/05/07 11:18:53;;;;;;;9.38;4.50;;;;;;;-149.78;88.39;50150.72;5072515;28;20056;-71
2022/05/07 11:21:24;;;;;;;8.68;4.57;;;;;;;-149.78;86.93;50115.50;5073917;28;20508;-71
2022/05/07 11:23:58;;;;;;;14.07;6.20;;;;;;;-149.78;82.76;50082.25;5072805;28;20028;-71
2022/05/07 11:26:24;;;;;;;13.88;6.13;;;;;;;-149.78;81.80;50135.06;5074036;28;20059;-70
2022/05/07 11:28:51;;;;;;;11.00;5.78;;;;;;;-149.78;82.31;50115.50;5072823;28;20089;-72
2022/05/07 11:31:33;;;;;;;10.57;5.85;;;;;;;-149.78;87.39;50142.88;5073772;28;20056;-72
2022/05/07 11:34:07;;;;;;;13.23;6.78;;;;;;;-149.78;88.18;50154.63;5073867;28;20453;-72
2022/05/07 11:36:34;;;;;;;10.18;5.72;;;;;;;-149.78;83.34;50129.19;5072558;28;20066;-72